createdAt,value
2022-11-13T00:01:48.768Z,7.70
2022-11-13T00:04:34.375Z,7.18
2022-11-13T00:07:19.488Z,6.22
2022-11-13T00:10:05.432Z,6.72
2022-11-13T00:12:50.622Z,7.82
2022-11-13T00:15:36.179Z,7.20
2022-11-13T00:18:21.106Z,6.88
2022-11-13T00:21:27.391Z,6.57
2022-11-13T00:24:12.788Z,6.00
2022-11-13T00:26:57.959Z,6.35
2022-11-13T00:29:43.561Z,6.35
2022-11-13T00:32:28.696Z,5.78
2022-11-13T00:35:14.236Z,5.63
2022-11-13T00:37:59.484Z,8.68
2022-11-13T00:40:44.776Z,6.07
2022-11-13T00:43:30.106Z,5.43
2022-11-13T00:46:15.299Z,5.88
2022-11-13T00:49:03.499Z,5.35
2022-11-13T00:51:48.809Z,5.47
2022-11-13T00:54:34.711Z,4.78
2022-11-13T00:57:20.395Z,5.18
2022-11-13T01:00:06.711Z,6.25
2022-11-13T01:02:51.592Z,5.30
2022-11-13T01:05:42.202Z,5.80
2022-11-13T01:08:27.669Z,4.93
2022-11-13T01:11:16.060Z,5.00
2022-11-13T01:14:01.299Z,4.85
2022-11-13T01:16:46.618Z,4.55
2022-11-13T01:19:31.863Z,4.78
2022-11-13T01:22:17.293Z,5.10
2022-11-13T01:25:02.585Z,4.45
2022-11-13T01:27:47.994Z,6.35
2022-11-13T01:30:33.247Z,6.35
2022-11-13T01:33:18.756Z,7.00
2022-11-13T01:36:08.754Z,5.75
2022-11-13T01:38:54.738Z,5.07
2022-11-13T01:41:40.545Z,6.57
2022-11-13T01:44:25.577Z,6.13
2022-11-13T01:47:11.059Z,5.75
2022-11-13T01:49:59.122Z,5.90
2022-11-13T01:52:44.556Z,5.15
2022-11-13T01:55:30.033Z,4.45
2022-11-13T01:58:16.441Z,5.50
2022-11-13T02:01:01.772Z,5.78
2022-11-13T02:03:47.367Z,5.35
2022-11-13T02:06:52.494Z,6.70
2022-11-13T02:09:43.486Z,5.30
2022-11-13T02:12:34.253Z,5.57
2022-11-13T02:15:23.674Z,5.68
2022-11-13T02:18:09.976Z,6.63
2022-11-13T02:21:06.108Z,6.63
2022-11-13T02:24:02.634Z,5.45
2022-11-13T02:26:51.090Z,6.32
2022-11-13T02:29:36.649Z,5.70
2022-11-13T02:32:21.897Z,6.30
2022-11-13T02:35:07.436Z,6.70
2022-11-13T02:37:53.065Z,5.22
2022-11-13T02:40:39.510Z,5.97
2022-11-13T02:43:24.847Z,5.45
2022-11-13T02:46:10.212Z,6.07
2022-11-13T02:48:55.275Z,7.53
2022-11-13T02:51:40.460Z,6.97
2022-11-13T02:54:25.718Z,6.47
2022-11-13T02:57:11.152Z,6.97
2022-11-13T02:59:56.683Z,6.07
2022-11-13T03:02:42.336Z,6.30
2022-11-13T03:05:27.470Z,6.63
2022-11-13T03:08:12.640Z,6.07
2022-11-13T03:10:57.915Z,5.82
2022-11-13T03:13:43.294Z,6.78
2022-11-13T03:16:28.517Z,6.70
2022-11-13T03:19:14.850Z,6.97
2022-11-13T03:21:59.951Z,6.95
2022-11-13T03:24:45.405Z,6.97
2022-11-13T03:27:32.298Z,6.60
2022-11-13T03:30:18.150Z,7.93
2022-11-13T03:33:03.337Z,7.13
2022-11-13T03:35:48.523Z,6.80
2022-11-13T03:38:34.476Z,6.20
2022-11-13T03:41:21.279Z,5.97
2022-11-13T03:44:06.695Z,7.75
2022-11-13T03:46:52.066Z,10.02
2022-11-13T03:49:37.213Z,6.60
2022-11-13T03:52:22.472Z,6.40
2022-11-13T03:55:08.180Z,6.07
2022-11-13T03:57:53.044Z,6.75
2022-11-13T04:00:40.149Z,7.40
2022-11-13T04:03:25.145Z,6.85
2022-11-13T04:06:10.495Z,6.85
2022-11-13T04:08:55.847Z,6.68
2022-11-13T04:11:41.310Z,6.00
2022-11-13T04:14:26.686Z,6.50
2022-11-13T04:17:11.984Z,6.88
2022-11-13T04:19:57.373Z,5.97
2022-11-13T04:22:43.074Z,5.75
2022-11-13T04:25:28.295Z,5.38
2022-11-13T04:28:13.560Z,5.65
2022-11-13T04:30:58.908Z,5.43
2022-11-13T04:33:44.267Z,5.05
2022-11-13T04:36:29.587Z,4.70
2022-11-13T04:39:14.991Z,5.57
2022-11-13T04:42:19.057Z,5.13
2022-11-13T04:45:04.813Z,4.80
2022-11-13T04:47:51.593Z,5.35
2022-11-13T04:50:36.938Z,5.95
2022-11-13T04:53:22.229Z,5.20
2022-11-13T04:56:07.602Z,4.72
2022-11-13T04:58:52.864Z,4.40
2022-11-13T05:01:38.246Z,4.63
2022-11-13T05:04:23.832Z,5.53
2022-11-13T05:07:08.912Z,5.05
2022-11-13T05:09:54.452Z,4.95
2022-11-13T05:12:39.611Z,4.88
2022-11-13T05:15:24.979Z,5.18
2022-11-13T05:18:10.242Z,4.63
2022-11-13T05:20:55.607Z,4.53
2022-11-13T05:23:41.119Z,4.80
2022-11-13T05:26:26.576Z,4.38
2022-11-13T05:29:11.704Z,4.70
2022-11-13T05:31:56.799Z,4.07
2022-11-13T05:34:42.278Z,4.85
2022-11-13T05:37:29.480Z,4.13
2022-11-13T05:40:14.927Z,4.45
2022-11-13T05:43:00.278Z,4.15
2022-11-13T05:45:45.382Z,3.80
2022-11-13T05:48:31.844Z,4.63
2022-11-13T05:51:20.027Z,5.57
2022-11-13T05:54:06.245Z,5.22
2022-11-13T05:56:51.129Z,4.95
2022-11-13T05:59:36.522Z,4.95
2022-11-13T06:02:21.748Z,5.60
2022-11-13T06:05:07.493Z,4.47
2022-11-13T06:07:52.508Z,4.53
2022-11-13T06:10:37.920Z,4.72
2022-11-13T06:13:23.173Z,4.63
2022-11-13T06:16:17.040Z,4.53
2022-11-13T06:19:04.489Z,4.72
2022-11-13T06:21:49.844Z,5.43
2022-11-13T06:24:34.875Z,4.80
2022-11-13T06:27:20.102Z,5.22
2022-11-13T06:30:06.057Z,5.15
2022-11-13T06:32:54.946Z,4.80
2022-11-13T06:35:40.249Z,4.78
2022-11-13T06:38:25.998Z,6.03
2022-11-13T06:41:14.614Z,5.80
2022-11-13T06:44:03.155Z,6.38
2022-11-13T06:46:48.509Z,7.32
2022-11-13T06:49:33.991Z,5.20
2022-11-13T06:52:19.452Z,6.22
2022-11-13T06:55:05.174Z,6.25
2022-11-13T06:57:50.169Z,6.65
2022-11-13T07:00:37.649Z,5.85
2022-11-13T07:03:26.825Z,6.80
2022-11-13T07:06:14.947Z,5.43
2022-11-13T07:09:00.274Z,6.43
2022-11-13T07:11:45.769Z,6.30
2022-11-13T07:14:31.041Z,6.53
2022-11-13T07:17:16.293Z,6.65
2022-11-13T07:20:01.698Z,7.03
2022-11-13T07:22:46.903Z,6.53
2022-11-13T07:25:32.905Z,6.32
2022-11-13T07:28:18.137Z,7.60
2022-11-13T07:31:03.459Z,9.30
2022-11-13T07:33:50.176Z,9.10
2022-11-13T07:36:35.210Z,14.93
2022-11-13T07:39:20.542Z,10.75
2022-11-13T07:42:05.892Z,10.77
2022-11-13T07:44:55.243Z,9.52
2022-11-13T07:47:41.021Z,9.27
2022-11-13T07:50:28.572Z,8.38
2022-11-13T07:53:14.126Z,6.82
2022-11-13T07:56:03.940Z,7.45
2022-11-13T07:58:49.428Z,6.63
2022-11-13T08:01:34.892Z,6.35
2022-11-13T08:04:20.323Z,5.78
2022-11-13T08:07:05.661Z,6.18
2022-11-13T08:09:51.061Z,5.47
2022-11-13T08:12:36.201Z,5.35
2022-11-13T08:15:21.414Z,7.60
2022-11-13T08:18:07.004Z,5.57
2022-11-13T08:20:51.901Z,5.30
2022-11-13T08:23:37.332Z,5.05
2022-11-13T08:26:22.989Z,5.25
2022-11-13T08:29:08.368Z,5.20
2022-11-13T08:31:53.602Z,4.78
2022-11-13T08:34:38.950Z,4.85
2022-11-13T08:37:24.369Z,4.68
2022-11-13T08:40:10.661Z,5.03
2022-11-13T08:43:03.414Z,5.00
2022-11-13T08:45:48.489Z,5.20
2022-11-13T08:48:34.366Z,4.65
2022-11-13T08:51:19.527Z,4.32
2022-11-13T08:54:05.030Z,5.13
2022-11-13T08:56:54.609Z,5.40
2022-11-13T08:59:41.016Z,5.05
2022-11-13T09:02:27.154Z,4.82
2022-11-13T09:05:12.621Z,5.68
2022-11-13T09:07:59.377Z,5.40
2022-11-13T09:10:44.693Z,4.50
2022-11-13T09:13:30.346Z,5.15
2022-11-13T09:16:15.689Z,5.70
2022-11-13T09:19:00.899Z,4.90
2022-11-13T09:21:47.075Z,6.00
2022-11-13T09:24:32.381Z,5.38
2022-11-13T09:27:18.269Z,5.43
2022-11-13T09:30:03.988Z,5.05
2022-11-13T09:32:52.411Z,4.90
2022-11-13T09:35:37.578Z,5.32
2022-11-13T09:38:23.334Z,4.13
2022-11-13T09:41:19.478Z,4.20
2022-11-13T09:44:43.520Z,4.72
2022-11-13T09:47:33.232Z,4.53
2022-11-13T09:50:25.009Z,5.07
2022-11-13T09:53:13.431Z,4.67
2022-11-13T09:56:12.730Z,4.45
2022-11-13T09:59:02.419Z,5.10
2022-11-13T10:01:50.737Z,4.68
2022-11-13T10:04:53.556Z,4.70
2022-11-13T10:11:13.326Z,4.60
2022-11-13T10:14:03.181Z,4.38
2022-11-13T10:16:56.389Z,4.10
2022-11-13T10:19:57.130Z,3.40
2022-11-13T10:22:56.000Z,3.50
2022-11-13T10:25:42.612Z,4.35
2022-11-13T10:28:49.629Z,3.95
2022-11-13T10:31:44.498Z,3.50
2022-11-13T10:34:29.834Z,4.72
2022-11-13T10:37:31.945Z,4.10
2022-11-13T10:40:28.407Z,4.17
2022-11-13T10:43:18.449Z,4.18
2022-11-13T10:46:06.636Z,4.53
2022-11-13T10:48:52.168Z,4.35
2022-11-13T10:51:37.291Z,3.92
2022-11-13T10:54:28.870Z,4.25
2022-11-13T10:57:30.301Z,3.78
2022-11-13T11:00:23.982Z,4.90
2022-11-13T11:03:22.463Z,3.78
2022-11-13T11:06:08.681Z,4.85
2022-11-13T11:08:53.754Z,3.85
2022-11-13T11:11:57.570Z,4.10
2022-11-13T11:14:59.696Z,4.35
2022-11-13T11:18:05.239Z,3.97
2022-11-13T11:20:57.606Z,3.90
2022-11-13T11:23:49.534Z,3.60
2022-11-13T11:26:47.507Z,4.40
2022-11-13T11:29:41.578Z,4.63
2022-11-13T11:32:37.546Z,4.20
2022-11-13T11:35:28.243Z,3.83
2022-11-13T11:38:41.886Z,3.85
2022-11-13T11:41:36.580Z,3.90
2022-11-13T11:44:42.361Z,3.65
2022-11-13T11:47:27.864Z,4.00
2022-11-13T11:50:15.756Z,3.78
2022-11-13T11:53:10.323Z,3.28
2022-11-13T11:56:31.690Z,3.88
2022-11-13T11:59:31.507Z,3.55
2022-11-13T12:02:28.689Z,4.07
2022-11-13T12:05:35.748Z,3.70
2022-11-13T12:08:51.195Z,4.50
2022-11-13T12:11:47.471Z,3.85
2022-11-13T12:14:40.720Z,3.63
2022-11-13T12:17:39.558Z,3.70
2022-11-13T12:20:39.675Z,3.50
2022-11-13T12:23:34.220Z,4.18
2022-11-13T12:26:37.680Z,3.97
2022-11-13T12:29:45.506Z,3.47
2022-11-13T12:32:37.481Z,3.80
2022-11-13T12:35:25.897Z,3.42
2022-11-13T12:38:47.881Z,3.85
2022-11-13T12:41:49.628Z,3.75
2022-11-13T12:44:46.964Z,3.97
2022-11-13T12:47:35.040Z,3.08
2022-11-13T12:50:31.409Z,3.47
2022-11-13T12:53:27.961Z,3.97
2022-11-13T12:56:26.057Z,3.50
2022-11-13T12:59:43.202Z,3.50
2022-11-13T13:02:55.922Z,3.80
2022-11-13T13:05:47.251Z,3.75
2022-11-13T13:08:57.724Z,3.30
2022-11-13T13:11:57.861Z,3.00
2022-11-13T13:15:05.812Z,3.47
2022-11-13T13:18:11.793Z,3.60
2022-11-13T13:20:59.715Z,3.65
2022-11-13T13:23:50.454Z,3.30
2022-11-13T13:26:45.968Z,3.50
2022-11-13T13:29:33.574Z,3.65
2022-11-13T13:32:46.070Z,3.03
2022-11-13T13:35:47.132Z,3.55
2022-11-13T13:38:35.221Z,3.53
2022-11-13T13:41:51.728Z,3.15
2022-11-13T13:45:00.623Z,3.38
2022-11-13T13:47:49.406Z,3.92
2022-11-13T13:50:41.874Z,3.85
2022-11-13T13:53:33.562Z,3.67
2022-11-13T13:56:21.101Z,3.03
2022-11-13T13:59:14.050Z,3.38
2022-11-13T14:02:02.650Z,3.80
2022-11-13T14:04:50.552Z,3.63
2022-11-13T14:07:35.904Z,4.03
2022-11-13T14:10:23.999Z,3.45
2022-11-13T14:13:13.585Z,3.75
2022-11-13T14:16:07.149Z,3.83
2022-11-13T14:19:03.503Z,3.85
2022-11-13T14:21:54.052Z,4.07
2022-11-13T14:25:00.333Z,3.85
2022-11-13T14:27:45.854Z,3.58
2022-11-13T14:30:31.816Z,3.60
2022-11-13T14:33:23.803Z,3.55
2022-11-13T14:36:09.465Z,3.85
2022-11-13T14:38:55.015Z,3.50
2022-11-13T14:41:49.367Z,3.78
2022-11-13T14:44:36.430Z,3.88
2022-11-13T14:47:21.937Z,3.60
2022-11-13T14:50:27.853Z,3.63
2022-11-13T14:53:13.079Z,3.15
2022-11-13T14:56:02.065Z,3.85
2022-11-13T14:58:47.479Z,3.78
2022-11-13T15:01:32.825Z,3.78
2022-11-13T15:04:17.994Z,4.07
2022-11-13T15:07:27.089Z,4.22
2022-11-13T15:10:15.893Z,3.70
2022-11-13T15:13:01.152Z,3.92
2022-11-13T15:15:46.562Z,4.22
2022-11-13T15:18:32.317Z,4.30
2022-11-13T15:21:18.590Z,3.60
2022-11-13T15:24:03.868Z,3.97
2022-11-13T15:26:49.088Z,4.53
2022-11-13T15:29:34.449Z,4.32
2022-11-13T15:32:19.856Z,3.83
2022-11-13T15:35:07.208Z,4.25
2022-11-13T15:37:52.793Z,4.57
2022-11-13T15:40:39.188Z,5.07
2022-11-13T15:43:24.549Z,4.60
2022-11-13T15:46:18.184Z,4.55
2022-11-13T15:49:03.535Z,5.07
2022-11-13T15:51:49.805Z,5.32
2022-11-13T15:54:37.910Z,4.72
2022-11-13T15:57:25.916Z,4.70
2022-11-13T16:00:18.498Z,4.40
2022-11-13T16:03:11.065Z,4.63
2022-11-13T16:06:00.798Z,4.95
2022-11-13T16:08:46.006Z,4.15
2022-11-13T16:11:33.112Z,4.60
2022-11-13T16:14:23.422Z,5.20
2022-11-13T16:17:22.408Z,5.07
2022-11-13T16:20:12.689Z,5.40
2022-11-13T16:22:58.069Z,5.30
2022-11-13T16:25:48.070Z,5.88
2022-11-13T16:28:37.576Z,5.30
2022-11-13T16:31:37.981Z,4.95
2022-11-13T16:34:23.468Z,5.80
2022-11-13T16:37:28.976Z,7.70
2022-11-13T16:40:19.199Z,7.93
2022-11-13T16:43:04.394Z,9.35
2022-11-13T16:45:49.816Z,12.25
2022-11-13T16:48:35.124Z,8.82
2022-11-13T16:51:20.618Z,7.82
2022-11-13T16:54:05.926Z,7.30
2022-11-13T16:56:51.284Z,6.70
2022-11-13T16:59:36.587Z,6.90
2022-11-13T17:02:21.806Z,8.25
2022-11-13T17:05:10.988Z,9.88
2022-11-13T17:07:59.662Z,9.82
2022-11-13T17:10:44.686Z,7.57
2022-11-13T17:13:30.329Z,6.78
2022-11-13T17:16:16.077Z,6.63
2022-11-13T17:19:01.907Z,7.20
2022-11-13T17:21:47.340Z,7.00
2022-11-13T17:24:32.515Z,7.28
2022-11-13T17:27:18.199Z,7.13
2022-11-13T17:30:04.121Z,8.05
2022-11-13T17:32:49.400Z,8.25
2022-11-13T17:35:35.065Z,8.50
2022-11-13T17:38:20.274Z,8.93
2022-11-13T17:41:11.500Z,8.77
2022-11-13T17:44:01.073Z,9.88
2022-11-13T17:46:48.092Z,9.43
2022-11-13T17:49:33.260Z,9.80
2022-11-13T17:52:18.727Z,9.90
2022-11-13T17:55:06.252Z,10.10
2022-11-13T17:57:51.996Z,11.32
2022-11-13T18:00:36.893Z,13.70
2022-11-13T18:03:22.145Z,13.32
2022-11-13T18:06:11.926Z,15.45
2022-11-13T18:08:58.473Z,12.13
2022-11-13T18:11:43.745Z,12.13
2022-11-13T18:14:29.137Z,18.33
2022-11-13T18:17:14.556Z,15.30
2022-11-13T18:20:02.076Z,16.45
2022-11-13T18:22:47.649Z,22.30
2022-11-13T18:25:39.507Z,26.90
2022-11-13T18:28:25.267Z,27.17
2022-11-13T18:31:16.962Z,21.10
2022-11-13T18:34:04.928Z,16.33
2022-11-13T18:36:50.689Z,16.15
2022-11-13T18:39:35.822Z,13.05
2022-11-13T18:42:21.189Z,11.15
2022-11-13T18:45:07.273Z,17.83
2022-11-13T18:47:52.197Z,16.70
2022-11-13T18:50:37.649Z,11.50
2022-11-13T18:53:23.036Z,11.38
2022-11-13T18:56:12.827Z,10.48
2022-11-13T18:58:59.437Z,5.13
2022-11-13T19:01:45.573Z,5.03
2022-11-13T19:04:30.749Z,4.15
2022-11-13T19:07:16.179Z,4.38
2022-11-13T19:10:02.333Z,4.20
2022-11-13T19:12:47.691Z,5.30
2022-11-13T19:15:36.202Z,9.27
2022-11-13T19:18:21.359Z,10.25
2022-11-13T19:21:12.438Z,11.70
2022-11-13T19:23:59.789Z,11.30
2022-11-13T19:26:45.936Z,12.35
2022-11-13T19:29:31.526Z,11.38
2022-11-13T19:32:16.955Z,10.95
2022-11-13T19:35:02.121Z,10.50
2022-11-13T19:37:47.431Z,9.95
2022-11-13T19:40:32.681Z,11.00
2022-11-13T19:43:18.370Z,10.18
2022-11-13T19:46:12.865Z,10.65
2022-11-13T19:48:58.053Z,11.57
2022-11-13T19:51:43.257Z,11.77
2022-11-13T19:54:28.609Z,10.88
2022-11-13T19:57:14.093Z,11.52
2022-11-13T19:59:59.288Z,12.25
2022-11-13T20:02:44.775Z,12.07
2022-11-13T20:05:30.298Z,13.13
2022-11-13T20:08:15.584Z,13.20
2022-11-13T20:11:03.343Z,13.80
2022-11-13T20:13:48.449Z,13.57
2022-11-13T20:16:33.771Z,12.95
2022-11-13T20:19:19.362Z,14.00
2022-11-13T20:22:04.739Z,14.15
2022-11-13T20:24:50.023Z,12.93
2022-11-13T20:27:37.421Z,12.18
2022-11-13T20:30:23.110Z,12.88
2022-11-13T20:33:08.576Z,14.05
2022-11-13T20:35:54.720Z,15.05
2022-11-13T20:38:41.194Z,13.85
2022-11-13T20:41:26.668Z,11.90
2022-11-13T20:44:12.473Z,12.32
2022-11-13T20:46:57.884Z,12.65
2022-11-13T20:49:43.151Z,11.48
2022-11-13T20:52:28.434Z,10.70
2022-11-13T20:55:13.515Z,12.20
2022-11-13T20:57:58.789Z,10.07
2022-11-13T21:00:44.233Z,12.70
2022-11-13T21:03:29.494Z,11.80
2022-11-13T21:06:21.392Z,13.00
2022-11-13T21:09:07.005Z,12.18
2022-11-13T21:11:52.241Z,12.95
2022-11-13T21:14:37.652Z,13.05
2022-11-13T21:17:22.947Z,12.02
2022-11-13T21:20:08.970Z,13.10
2022-11-13T21:22:54.413Z,14.30
2022-11-13T21:25:39.660Z,13.60
2022-11-13T21:28:29.290Z,12.30
2022-11-13T21:31:19.804Z,11.25
2022-11-13T21:34:04.792Z,15.00
2022-11-13T21:36:51.748Z,13.77
2022-11-13T21:39:37.083Z,14.13
2022-11-13T21:42:22.111Z,13.50
2022-11-13T21:45:08.079Z,11.65
2022-11-13T21:47:53.727Z,11.15
2022-11-13T21:50:39.320Z,12.65
2022-11-13T21:53:24.683Z,15.10
2022-11-13T21:56:15.401Z,13.90
2022-11-13T21:59:01.622Z,13.40
2022-11-13T22:01:47.244Z,12.40
2022-11-13T22:04:32.769Z,13.25
2022-11-13T22:07:18.131Z,12.77
2022-11-13T22:10:08.152Z,13.40
2022-11-13T22:12:53.905Z,11.73
2022-11-13T22:15:38.820Z,11.52
2022-11-13T22:18:24.757Z,12.95
2022-11-13T22:21:12.249Z,12.80
2022-11-13T22:23:58.263Z,12.90
2022-11-13T22:26:48.496Z,12.20
2022-11-13T22:29:33.516Z,13.05
2022-11-13T22:32:18.767Z,15.15
2022-11-13T22:35:04.346Z,13.50
2022-11-13T22:37:49.344Z,13.35
2022-11-13T22:40:34.670Z,12.88
2022-11-13T22:43:20.310Z,12.43
2022-11-13T22:46:08.116Z,13.32
2022-11-13T22:48:55.417Z,14.20
2022-11-13T22:51:41.700Z,13.15
2022-11-13T22:54:26.884Z,12.65
2022-11-13T22:57:12.813Z,12.02
2022-11-13T22:59:57.861Z,12.05
2022-11-13T23:02:47.230Z,12.15
2022-11-13T23:05:35.831Z,12.85
2022-11-13T23:08:21.428Z,12.38
2022-11-13T23:11:08.369Z,11.45
2022-11-13T23:13:56.634Z,11.65
2022-11-13T23:16:42.956Z,12.15
2022-11-13T23:19:28.235Z,13.07
2022-11-13T23:22:13.646Z,11.55
2022-11-13T23:24:58.947Z,14.73
2022-11-13T23:27:44.195Z,12.40
2022-11-13T23:30:30.157Z,12.48
2022-11-13T23:33:15.965Z,12.50
2022-11-13T23:36:01.655Z,12.95
2022-11-13T23:38:47.537Z,12.55
2022-11-13T23:41:32.778Z,10.18
2022-11-13T23:44:18.012Z,13.15
2022-11-13T23:47:03.853Z,13.10
2022-11-13T23:49:49.317Z,12.85
2022-11-13T23:52:34.452Z,13.10
2022-11-13T23:55:21.388Z,13.75
2022-11-13T23:58:11.014Z,13.52
